createdAt,value
2023-07-20T00:00:55.045Z,92.91
2023-07-20T00:06:09.371Z,92.97
2023-07-20T00:11:14.981Z,92.95
2023-07-20T00:16:18.255Z,93.09
2023-07-20T00:21:21.480Z,93.12
2023-07-20T00:26:24.620Z,93.26
2023-07-20T00:31:28.410Z,93.34
2023-07-20T00:36:31.827Z,93.44
2023-07-20T00:41:35.231Z,93.44
2023-07-20T00:46:38.662Z,93.58
2023-07-20T00:51:43.079Z,93.54
2023-07-20T00:56:47.320Z,93.54
2023-07-20T01:01:50.753Z,93.49
2023-07-20T01:07:17.589Z,93.49
2023-07-20T01:12:29.911Z,93.57
2023-07-20T01:17:33.426Z,93.59
2023-07-20T01:23:11.124Z,93.27
2023-07-20T01:28:33.212Z,93.21
2023-07-20T01:33:37.836Z,93.35
2023-07-20T01:38:41.869Z,93.42
2023-07-20T01:43:45.685Z,93.44
2023-07-20T01:48:49.166Z,93.48
2023-07-20T01:53:52.410Z,93.49
2023-07-20T01:58:55.618Z,93.71
2023-07-20T02:03:58.824Z,93.94
2023-07-20T02:09:02.247Z,94.03
2023-07-20T02:14:05.556Z,94.09
2023-07-20T02:19:09.066Z,94.30
2023-07-20T02:24:14.156Z,94.40
2023-07-20T02:29:17.336Z,94.39
2023-07-20T02:34:20.333Z,94.29
2023-07-20T02:39:23.644Z,94.14
2023-07-20T02:44:26.649Z,94.10
2023-07-20T02:49:30.063Z,93.99
2023-07-20T02:54:33.273Z,93.68
2023-07-20T02:59:36.271Z,93.40
2023-07-20T03:04:39.700Z,93.11
2023-07-20T03:09:43.197Z,93.11
2023-07-20T03:14:46.304Z,93.12
2023-07-20T03:19:49.716Z,93.16
2023-07-20T03:24:53.753Z,93.08
2023-07-20T03:29:57.159Z,93.28
2023-07-20T03:35:00.466Z,93.49
2023-07-20T03:40:04.499Z,93.62
2023-07-20T03:45:08.916Z,93.29
2023-07-20T03:50:12.355Z,92.84
2023-07-20T03:55:15.630Z,92.96
2023-07-20T04:00:19.785Z,93.01
2023-07-20T04:05:23.110Z,93.18
2023-07-20T04:10:26.613Z,93.20
2023-07-20T04:15:29.784Z,93.29
2023-07-20T04:20:33.143Z,93.40
2023-07-20T04:25:40.904Z,93.45
2023-07-20T04:30:44.533Z,93.47
2023-07-20T04:35:53.324Z,93.38
2023-07-20T04:40:57.229Z,93.08
2023-07-20T04:46:00.975Z,92.34
2023-07-20T04:51:04.669Z,91.48
2023-07-20T04:56:07.881Z,91.06
2023-07-20T05:01:11.188Z,90.33
2023-07-20T05:06:14.601Z,90.03
2023-07-20T05:11:18.218Z,89.64
2023-07-20T05:16:21.841Z,89.40
2023-07-20T05:21:25.561Z,88.70
2023-07-20T05:26:28.766Z,88.61
2023-07-20T05:31:33.129Z,87.86
2023-07-20T05:36:36.641Z,85.78
2023-07-20T05:41:39.932Z,83.80
2023-07-20T05:46:56.227Z,81.89
2023-07-20T05:52:02.536Z,78.69
2023-07-20T05:57:06.352Z,77.88
2023-07-20T06:02:09.966Z,75.90
2023-07-20T06:07:13.381Z,70.92
2023-07-20T06:12:16.894Z,68.69
2023-07-20T06:17:20.255Z,67.19
2023-07-20T06:22:23.727Z,64.13
2023-07-20T06:27:27.024Z,61.83
2023-07-20T06:32:30.544Z,61.01
2023-07-20T06:37:34.466Z,60.15
2023-07-20T06:47:44.910Z,60.49
2023-07-20T06:52:49.551Z,60.62
2023-07-20T06:57:58.869Z,56.36
2023-07-20T07:03:02.751Z,52.10
2023-07-20T07:08:06.865Z,51.56
2023-07-20T07:13:10.245Z,49.28
2023-07-20T07:18:13.503Z,48.87
2023-07-20T07:23:16.909Z,44.61
2023-07-20T07:28:20.373Z,44.80
2023-07-20T07:33:23.584Z,40.34
2023-07-20T07:43:36.358Z,35.01
2023-07-20T07:48:39.967Z,32.83
2023-07-20T07:53:43.799Z,29.26
2023-07-20T07:58:47.113Z,25.98
2023-07-20T08:03:50.785Z,25.01
2023-07-20T08:08:54.055Z,25.44
2023-07-20T08:13:57.958Z,23.90
2023-07-20T08:19:01.323Z,25.50
2023-07-20T08:24:05.520Z,24.51
2023-07-20T08:29:08.812Z,26.84
2023-07-20T08:34:24.409Z,26.83
2023-07-20T08:39:33.655Z,29.95
2023-07-20T08:44:40.009Z,29.29
2023-07-20T08:49:44.145Z,29.04
2023-07-20T08:54:47.916Z,26.80
2023-07-20T08:59:54.111Z,25.78
2023-07-20T09:04:57.776Z,26.30
2023-07-20T09:10:01.305Z,24.55
2023-07-20T09:15:07.816Z,23.62
2023-07-20T09:20:12.368Z,25.25
2023-07-20T09:25:17.896Z,25.58
2023-07-20T09:30:31.611Z,26.17
2023-07-20T09:35:43.157Z,28.18
2023-07-20T09:46:00.000Z,32.65
2023-07-20T09:51:03.628Z,35.30
2023-07-20T09:56:08.432Z,35.84
2023-07-20T10:01:15.759Z,35.01
2023-07-20T10:06:25.124Z,35.00
2023-07-20T10:11:32.024Z,36.13
2023-07-20T10:16:49.990Z,36.54
2023-07-20T10:22:04.602Z,37.10
2023-07-20T10:27:08.889Z,38.08
2023-07-20T10:32:12.755Z,38.43
2023-07-20T10:37:50.744Z,38.88
2023-07-20T10:43:11.263Z,38.15
2023-07-20T10:48:20.846Z,38.13
2023-07-20T10:53:24.120Z,38.90
2023-07-20T10:58:30.195Z,39.08
2023-07-20T11:03:38.314Z,40.51
2023-07-20T11:08:43.321Z,41.07
2023-07-20T11:13:58.882Z,41.01
2023-07-20T11:19:03.298Z,40.89
2023-07-20T11:24:07.861Z,41.47
2023-07-20T11:29:20.995Z,41.01
2023-07-20T11:34:31.363Z,42.00
2023-07-20T11:39:34.572Z,40.79
2023-07-20T11:44:38.103Z,40.54
2023-07-20T11:49:43.754Z,41.53
2023-07-20T11:54:49.994Z,41.16
2023-07-20T12:00:05.962Z,40.77
2023-07-20T12:05:10.067Z,40.21
2023-07-20T12:10:13.870Z,41.21
2023-07-20T12:15:31.670Z,41.84
2023-07-20T12:20:41.020Z,41.12
2023-07-20T12:25:47.074Z,40.68
2023-07-20T12:30:57.873Z,41.83
2023-07-20T12:36:02.938Z,42.84
2023-07-20T12:41:06.353Z,42.43
2023-07-20T12:46:11.402Z,44.44
2023-07-20T12:51:14.889Z,45.87
2023-07-20T13:01:26.698Z,54.74
2023-07-20T13:06:30.668Z,57.07
2023-07-20T13:11:33.723Z,58.29
2023-07-20T13:16:37.339Z,60.82
2023-07-20T13:21:40.903Z,62.01
2023-07-20T13:26:44.407Z,61.37
2023-07-20T13:31:48.725Z,60.73
2023-07-20T13:36:53.516Z,62.65
2023-07-20T13:41:57.981Z,66.61
2023-07-20T13:57:17.236Z,70.25
2023-07-20T14:07:27.066Z,68.15
2023-07-20T14:12:30.448Z,68.55
2023-07-20T14:17:33.758Z,68.88
2023-07-20T14:22:38.203Z,70.60
2023-07-20T14:27:42.361Z,70.37
2023-07-20T14:32:50.795Z,69.97
2023-07-20T14:37:54.745Z,69.45
2023-07-20T14:42:58.673Z,68.97
2023-07-20T14:48:01.976Z,67.74
2023-07-20T14:53:06.998Z,68.47
2023-07-20T14:58:10.731Z,66.87
2023-07-20T15:03:14.192Z,68.46
2023-07-20T15:08:17.580Z,70.40
2023-07-20T15:13:20.969Z,70.86
2023-07-20T15:18:37.640Z,71.21
2023-07-20T15:23:47.558Z,70.86
2023-07-20T15:28:51.083Z,70.90
2023-07-20T15:33:54.723Z,69.34
2023-07-20T15:38:58.796Z,66.76
2023-07-20T15:44:04.202Z,67.74
2023-07-20T15:49:08.761Z,65.90
2023-07-20T15:54:12.748Z,66.71
2023-07-20T15:59:17.385Z,67.61
2023-07-20T16:04:21.320Z,68.64
2023-07-20T16:09:24.951Z,67.16
2023-07-20T16:14:28.473Z,68.15
2023-07-20T16:19:32.273Z,68.24
2023-07-20T16:24:36.158Z,68.51
2023-07-20T16:29:42.291Z,68.30
2023-07-20T16:34:49.467Z,68.96
2023-07-20T16:39:54.040Z,68.35
2023-07-20T16:44:57.637Z,67.36
2023-07-20T16:50:01.414Z,67.97
2023-07-20T16:55:06.320Z,67.85
2023-07-20T17:00:15.194Z,67.96
2023-07-20T17:05:20.024Z,67.81
2023-07-20T17:10:24.321Z,67.34
2023-07-20T17:15:27.635Z,67.39
2023-07-20T17:30:41.804Z,68.35
2023-07-20T17:35:45.222Z,68.70
2023-07-20T17:40:48.499Z,69.89
2023-07-20T17:45:52.251Z,70.87
2023-07-20T17:50:56.473Z,70.58
2023-07-20T17:56:00.732Z,71.73
2023-07-20T18:01:04.469Z,72.63
2023-07-20T18:06:08.754Z,72.45
2023-07-20T18:11:12.047Z,72.44
2023-07-20T18:16:15.692Z,72.34
2023-07-20T18:21:19.579Z,72.92
2023-07-20T18:26:23.307Z,74.10
2023-07-20T18:31:27.258Z,74.19
2023-07-20T18:36:31.481Z,74.94
2023-07-20T18:41:35.179Z,75.93
2023-07-20T18:46:39.317Z,76.02
2023-07-20T18:51:43.295Z,76.72
2023-07-20T18:56:47.241Z,76.61
2023-07-20T19:01:50.752Z,76.95
2023-07-20T19:06:55.846Z,77.89
2023-07-20T19:11:59.242Z,78.60
2023-07-20T19:17:03.085Z,80.40
2023-07-20T19:22:06.889Z,80.32
2023-07-20T19:27:10.423Z,80.97
2023-07-20T19:32:14.745Z,81.49
2023-07-20T19:37:18.050Z,81.58
2023-07-20T19:42:24.880Z,81.79
2023-07-20T19:47:29.217Z,82.13
2023-07-20T19:52:33.394Z,82.53
2023-07-20T19:57:40.573Z,83.00
2023-07-20T20:07:51.634Z,82.97
2023-07-20T20:12:54.955Z,82.17
2023-07-20T20:18:00.963Z,83.56
2023-07-20T20:23:17.764Z,84.44
2023-07-20T20:28:21.484Z,84.85
2023-07-20T20:33:26.278Z,84.81
2023-07-20T20:38:30.545Z,85.28
2023-07-20T20:43:33.758Z,85.48
2023-07-20T20:48:38.963Z,85.74
2023-07-20T20:53:43.351Z,85.32
2023-07-20T20:58:47.680Z,84.60
2023-07-20T21:03:51.310Z,85.04
2023-07-20T21:08:55.429Z,84.38
2023-07-20T21:13:59.770Z,84.60
2023-07-20T21:19:04.017Z,83.90
2023-07-20T21:24:07.317Z,83.93
2023-07-20T21:29:10.510Z,83.40
2023-07-20T21:34:13.728Z,83.21
2023-07-20T21:39:17.054Z,83.71
2023-07-20T21:44:20.447Z,83.82
2023-07-20T21:49:23.549Z,83.51
2023-07-20T21:54:26.758Z,84.13
2023-07-20T21:59:30.072Z,83.31
2023-07-20T22:04:33.731Z,84.39
2023-07-20T22:09:38.020Z,84.77
2023-07-20T22:14:43.144Z,85.02
2023-07-20T22:19:46.396Z,85.59
2023-07-20T22:24:49.629Z,85.50
2023-07-20T22:29:53.220Z,86.01
2023-07-20T22:34:58.104Z,86.16
2023-07-20T22:40:01.319Z,85.42
2023-07-20T22:45:07.889Z,86.14
2023-07-20T22:50:12.198Z,86.56
2023-07-20T22:55:15.605Z,86.66
2023-07-20T23:00:25.573Z,87.25
2023-07-20T23:05:29.193Z,87.37
2023-07-20T23:10:32.709Z,87.65
2023-07-20T23:15:37.040Z,87.95
2023-07-20T23:20:40.366Z,88.11
2023-07-20T23:25:44.069Z,88.53
2023-07-20T23:30:51.171Z,88.46
2023-07-20T23:35:54.479Z,88.33
2023-07-20T23:40:57.888Z,88.85
2023-07-20T23:46:04.000Z,88.84
2023-07-20T23:51:11.068Z,89.13
2023-07-20T23:56:17.980Z,87.69
